CW6020 Teulada ES current weather conditions

sailwx.info

Wind from 292 at 0 knots gusting 1

Air temperature 16.7° C
Dewpoint 10.1° C

Last reported at 2015-May-25 22:41 UTC.
Time now 2015-May-25 23:45 UTC

Location: N 38°44' E 000°06'.
View on Google Maps.

See reports from other nearby stations

  
Tides and Currents Weather Stations Pressure Air Temp Water Temp Dewpoint Dewpoint Depression Visibility Wind Speed Wind Dir Waves Ship Positions
date/time (UTC)wind fromknots sea level pressurealtimeterstation pressurevisibilityair tempwater tempwave heightnotes
2015-May-25 22:41 292 0 gusting 1 16.7
2015-May-25 22:31 16.7
2015-May-25 22:21 17.2
2015-May-25 22:11 17.2
2015-May-25 22:01 315 0 gusting 1 17.2
2015-May-25 21:51 315 17.2
2015-May-25 21:41 315 17.8
2015-May-25 21:31 315 17.8
2015-May-25 21:21 17.8
2015-May-25 21:11 17.8
2015-May-25 21:01 18.3
2015-May-25 20:51 18.3
2015-May-25 20:36 18.9
2015-May-25 20:26 315 18.9
2015-May-25 20:16 18.9
2015-May-25 20:06 315 19.4
2015-May-25 19:56 20.0
2015-May-25 19:46 20.0
2015-May-25 19:36 20.6
2015-May-25 19:26 21.1
2015-May-25 19:16 21.7
2015-May-25 19:06 21.7
2015-May-25 18:56 22.2
2015-May-25 18:46 315 22.8
2015-May-25 18:36 23.3
2015-May-25 18:26 23.9
2015-May-25 18:16 180 0 gusting 1 23.9
2015-May-25 18:06 24.4
2015-May-25 17:56 25.0
2015-May-25 17:46 090 25.6
2015-May-25 17:36 25.0
2015-May-25 17:26 045 25.0
2015-May-25 17:16 045 0 gusting 2 25.6
2015-May-25 17:06 045 2 gusting 5 26.1
2015-May-25 16:56 067 1 gusting 2 25.6
2015-May-25 16:46 090 0 gusting 2 26.1
2015-May-25 16:36 045 0 gusting 2 26.7
2015-May-25 16:26 26.7
2015-May-25 16:16 26.7
2015-May-25 16:06 225 2 gusting 3 26.7
2015-May-25 15:56 225 2 gusting 4 26.7
2015-May-25 15:46 225 0 gusting 1 26.7
2015-May-25 15:36 180 27.2
2015-May-25 15:26 180 1 gusting 2 27.2
2015-May-25 15:16 180 1 gusting 2 27.8
2015-May-25 15:06 180 1 gusting 2 27.8
2015-May-25 14:56 225 2 gusting 5 27.8
2015-May-25 14:26 045 2 gusting 3 27.8
2015-May-25 14:16 045 2 gusting 3 27.2
2015-May-25 14:06 270 1 gusting 4 27.2
2015-May-25 13:56 315 0 gusting 1 27.2
2015-May-25 13:46 315 0 gusting 3 27.2
2015-May-25 13:36 270 2 gusting 6 27.2
2015-May-25 13:26 225 2 gusting 5 27.8
2015-May-25 13:16 315 0 gusting 2 27.8
2015-May-25 13:06 27.2
2015-May-25 12:56 337 2 gusting 4 27.8
2015-May-25 12:46 315 1 gusting 5 27.2
2015-May-25 12:36 045 2 gusting 3 27.2
2015-May-25 12:26 090 1 gusting 3 26.7
2015-May-25 12:16 315 1 gusting 2 27.2
2015-May-25 12:06 315 0 gusting 1 27.2
2015-May-25 11:56 315 2 gusting 6 27.2
2015-May-25 11:46 315 0 gusting 2 27.2
2015-May-25 11:36 315 0 gusting 2 27.2
2015-May-25 11:26 315 1 gusting 3 26.7
2015-May-25 11:16 315 1 gusting 2 26.7
2015-May-25 11:06 270 0 gusting 2 26.7
2015-May-25 10:56 270 4 gusting 6 25.0
2015-May-25 10:46 270 0 gusting 1 24.4
2015-May-25 10:36 270 2 gusting 4 25.0
2015-May-25 10:26 090 4 gusting 6 25.6
2015-May-25 10:16 090 0 gusting 2 25.6
2015-May-25 10:06 045 0 gusting 2 24.4
2015-May-25 09:56 045 2 gusting 4 24.4
2015-May-25 09:46 045 2 gusting 5 23.9
2015-May-25 09:36 045 2 gusting 5 23.9
2015-May-25 09:26 045 2 gusting 4 23.3
2015-May-25 09:16 045 2 gusting 5 23.3
2015-May-25 09:06 045 5 gusting 7 22.8
2015-May-25 08:56 022 22.8
2015-May-25 08:46 045 2 gusting 5 22.2
2015-May-25 08:36 045 1 gusting 2 22.2
2015-May-25 08:26 045 2 gusting 4 21.7
2015-May-25 08:16 045 2 gusting 3 21.7
2015-May-25 08:06 045 2 gusting 3 21.1
2015-May-25 07:56 045 0 gusting 1 20.6
2015-May-25 07:46 045 2 gusting 3 20.6
2015-May-25 07:36 090 1 gusting 3 20.0
2015-May-25 07:26 090 2 gusting 4 19.4
2015-May-25 07:16 090 2 gusting 4 18.9
2015-May-25 07:06 315 3 gusting 5 18.3
2015-May-25 06:56 045 2 gusting 5 18.3
2015-May-25 06:46 17.8
2015-May-25 06:36 17.2
2015-May-25 06:26 045 1 gusting 4 16.7
2015-May-25 06:16 045 2 gusting 6 16.7
2015-May-25 06:06 045 2 gusting 4 16.1
2015-May-25 05:56 090 1 gusting 3 16.1
2015-May-25 05:46 315 2 gusting 6 15.6
2015-May-25 05:36 315 0 gusting 1 15.6
2015-May-25 05:26 315 0 gusting 1 15.6
2015-May-25 05:16 315 0 gusting 3 15.6
2015-May-25 05:06 292 0 gusting 2 15.6
2015-May-25 04:56 315 15.6
2015-May-25 04:46 315 0 gusting 1 15.6
2015-May-25 04:36 315 0 gusting 2 15.0
2015-May-25 04:26 022 0 gusting 1 14.4
2015-May-25 04:16 225 13.9
2015-May-25 04:06 13.9
2015-May-25 03:56 13.9
2015-May-25 03:46 13.3
2015-May-25 03:36 225 13.3
2015-May-25 03:26 225 13.3
2015-May-25 03:16 225 0 gusting 1 13.3
2015-May-25 03:06 13.3
2015-May-25 02:56 12.8
2015-May-25 02:46 225 12.8
2015-May-25 02:36 13.3
2015-May-25 02:26 13.9
2015-May-25 02:16 13.9
2015-May-25 02:06 13.9
2015-May-25 01:56 13.9
2015-May-25 01:46 13.9
2015-May-25 01:36 13.9
2015-May-25 01:26 13.9
2015-May-25 01:16 13.9
2015-May-25 01:06 13.9
2015-May-25 00:56 13.9
2015-May-25 00:46 13.9
2015-May-25 00:36 14.4
2015-May-25 00:26 14.4
2015-May-25 00:16 225 14.4
2015-May-25 00:06 14.4
2015-May-24 23:56 225 15.0
2015-May-24 23:46 15.0
2015-May-24 23:36 225 15.0
2015-May-24 23:26 15.0
2015-May-24 23:16 15.0
2015-May-24 23:06 15.6
2015-May-24 22:56 15.6
2015-May-24 22:46 15.6
2015-May-24 22:36 15.6
2015-May-24 22:26 16.1
2015-May-24 22:16 16.1
2015-May-24 22:06 16.7
2015-May-24 21:56 225 16.7
2015-May-24 21:46 17.2
2015-May-24 21:36 17.2
2015-May-24 21:26 17.2
2015-May-24 21:16 17.8
2015-May-24 21:06 17.8
2015-May-24 20:56 17.8
2015-May-24 20:46 17.8
2015-May-24 20:39 17.8
2015-May-24 20:26 17.8
2015-May-24 20:16 17.8
2015-May-24 20:06 225 17.8
2015-May-24 19:56 17.8
2015-May-24 19:46 17.8
2015-May-24 19:36 225 18.3
2015-May-24 19:26 18.3
2015-May-24 19:16 225 18.3
2015-May-24 19:06 225 18.3
2015-May-24 18:56 225 1 gusting 2 18.9
2015-May-24 18:46 225 1 gusting 2 18.9
2015-May-24 18:36 18.9
2015-May-24 18:26 225 0 gusting 2 18.9
2015-May-24 18:16 225 1 gusting 2 19.4
2015-May-24 18:06 225 0 gusting 0 19.4
2015-May-24 17:56 225 0 gusting 1 20.0
2015-May-24 17:46 225 1 gusting 2 20.0
2015-May-24 17:36 225 0 gusting 2 20.0
2015-May-24 17:26 225 1 gusting 2 20.0
2015-May-24 17:16 225 1 gusting 3 20.0
2015-May-24 17:06 225 2 gusting 5 20.0
2015-May-24 16:56 225 0 gusting 2 20.6
2015-May-24 16:46 225 20.6
2015-May-24 16:36 225 0 gusting 2 20.6
2015-May-24 16:26 337 1 gusting 2 21.1
2015-May-24 16:16 270 4 gusting 6 21.7
2015-May-24 16:06 270 2 gusting 3 21.7
2015-May-24 15:56 270 2 gusting 5 22.2
2015-May-24 15:46 270 1 gusting 2 22.8
2015-May-24 15:36 225 5 gusting 8 22.8
2015-May-24 15:26 090 22.8
2015-May-24 15:16 090 0 gusting 1 22.8
2015-May-24 15:06 090 23.3
2015-May-24 14:56 090 2 gusting 3 23.3
2015-May-24 14:46 067 22.8
2015-May-24 14:36 090 22.2
2015-May-24 14:26 090 1 gusting 2 21.7
2015-May-24 14:16 090 1 gusting 2 21.7
2015-May-24 14:06 090 21.7
2015-May-24 13:56 090 2 gusting 3 21.7
2015-May-24 13:46 090 1 gusting 2 21.7
2015-May-24 13:36 090 0 gusting 1 22.2
2015-May-24 13:26 090 1 gusting 2 22.2
2015-May-24 13:16 090 1 gusting 2 22.8
2015-May-24 13:06 315 1 gusting 2 22.8
2015-May-24 12:56 270 2 gusting 3 22.8
2015-May-24 12:46 225 2 gusting 5 23.9
2015-May-24 12:36 225 2 gusting 4 23.9
2015-May-24 12:26 225 23.9
2015-May-24 12:16 225 0 gusting 2 22.8
2015-May-24 12:06 225 22.2
2015-May-24 11:56 225 1 gusting 2 22.2
2015-May-24 11:46 225 2 gusting 4 21.7
2015-May-24 11:36 225 0 gusting 2 21.7
2015-May-24 11:26 225 0 gusting 2 21.7
2015-May-24 11:16 225 1 gusting 3 22.2
2015-May-24 11:06 180 21.7
2015-May-24 10:56 180 21.7
2015-May-24 10:46 180 21.7
2015-May-24 10:36 225 0 gusting 2 21.7
2015-May-24 10:26 225 2 gusting 2 22.2
2015-May-24 10:16 225 1 gusting 2 22.2
2015-May-24 10:06 180 2 gusting 3 22.2
2015-May-24 09:56 180 22.2
2015-May-24 09:46 180 22.8
2015-May-24 09:36 225 0 gusting 1 22.8
2015-May-24 09:26 225 0 gusting 2 23.3
2015-May-24 09:16 225 1 gusting 2 23.3
2015-May-24 09:06 225 1 gusting 2 22.2
2015-May-24 08:56 225 1 gusting 2 21.7
2015-May-24 08:46 225 0 gusting 2 21.1
2015-May-24 08:36 225 21.1
2015-May-24 08:26 225 0 gusting 1 20.6
2015-May-24 08:16 225 0 gusting 2 20.6
2015-May-24 08:06 225 0 gusting 1 20.0
2015-May-24 07:56 225 0 gusting 1 18.9
2015-May-24 07:46 225 18.3
2015-May-24 07:36 17.8
2015-May-24 07:28 225 0 gusting 2 17.2
2015-May-24 07:16 225 0 gusting 2 16.7
2015-May-24 07:06 180 15.6
2015-May-24 06:56 180 15.6
2015-May-24 06:46 180 0 gusting 1 15.0
2015-May-24 06:36 180 15.0
2015-May-24 06:26 180 14.4
2015-May-24 06:16 13.9
2015-May-24 06:06 13.3
2015-May-24 05:56 180 0 gusting 1 12.8
2015-May-24 05:46 180 1 gusting 2 12.8
2015-May-24 05:36 180 0 gusting 1 12.2
2015-May-24 05:26 180 0 gusting 1 12.2
2015-May-24 05:16 180 12.2
2015-May-24 05:06 180 11.7
2015-May-24 04:56 180 0 gusting 1 11.7
2015-May-24 04:46 11.7
2015-May-24 04:36 180 0 gusting 1 11.7
2015-May-24 04:26 180 0 gusting 0 11.7
2015-May-24 04:16 11.7
2015-May-24 04:06 180 11.7
2015-May-24 03:56 12.2
2015-May-24 03:46 12.2
2015-May-24 03:36 180 12.2
2015-May-24 03:26 180 0 gusting 1 12.2
2015-May-24 03:16 180 12.8
2015-May-24 03:06 12.8
2015-May-24 02:56 12.8
2015-May-24 02:46 180 12.8
2015-May-24 02:36 12.8
2015-May-24 02:26 180 12.8
2015-May-24 02:16 180 12.8
2015-May-24 02:06 180 12.8
2015-May-24 01:56 180 0 gusting 2 12.8
2015-May-24 01:46 13.3
2015-May-24 01:36 180 13.3
2015-May-24 01:26 13.9
2015-May-24 01:16 180 13.9
2015-May-24 01:06 180 14.4
2015-May-24 00:56 14.4
2015-May-24 00:46 14.4
2015-May-24 00:36 180 14.4
2015-May-24 00:26 180 13.9
2015-May-24 00:16 180 14.4
2015-May-24 00:06 180 14.4
2015-May-23 23:56 180 14.4
2015-May-23 23:46 180 14.4
2015-May-23 23:36 15.0
2015-May-23 23:26 180 15.0
2015-May-23 23:16 180 15.0
2015-May-23 23:06 15.0